createdAt,value
2022-10-10T00:01:37.281Z,3.70
2022-10-10T00:04:06.787Z,3.07
2022-10-10T00:06:35.260Z,3.00
2022-10-10T00:09:04.472Z,3.40
2022-10-10T00:11:32.993Z,3.50
2022-10-10T00:14:01.191Z,3.47
2022-10-10T00:16:29.289Z,3.00
2022-10-10T00:18:58.783Z,3.63
2022-10-10T00:21:26.802Z,3.63
2022-10-10T00:23:54.886Z,3.40
2022-10-10T00:26:22.980Z,3.53
2022-10-10T00:28:51.200Z,3.27
2022-10-10T00:31:19.440Z,3.57
2022-10-10T00:33:48.092Z,3.60
2022-10-10T00:36:20.371Z,3.33
2022-10-10T00:38:49.319Z,3.67
2022-10-10T00:41:17.524Z,3.97
2022-10-10T00:44:07.790Z,3.20
2022-10-10T00:46:36.110Z,3.07
2022-10-10T00:49:07.471Z,3.13
2022-10-10T00:51:37.915Z,3.27
2022-10-10T00:54:10.533Z,3.40
2022-10-10T00:56:44.998Z,3.30
2022-10-10T00:59:13.473Z,3.40
2022-10-10T01:01:43.077Z,3.57
2022-10-10T01:04:31.799Z,3.43
2022-10-10T01:07:02.641Z,3.33
2022-10-10T01:09:32.027Z,3.90
2022-10-10T01:12:16.480Z,3.50
2022-10-10T01:14:55.962Z,3.53
2022-10-10T01:17:31.346Z,3.10
2022-10-10T01:20:42.871Z,3.20
2022-10-10T01:23:50.931Z,3.20
2022-10-10T01:26:55.939Z,3.60
2022-10-10T01:29:31.058Z,3.87
2022-10-10T01:32:08.901Z,3.53
2022-10-10T01:34:49.037Z,3.57
2022-10-10T01:37:21.611Z,3.73
2022-10-10T01:39:58.803Z,3.63
2022-10-10T01:42:32.960Z,3.97
2022-10-10T01:45:02.406Z,3.23
2022-10-10T01:47:30.492Z,3.30
2022-10-10T01:50:06.078Z,3.83
2022-10-10T01:52:45.273Z,3.40
2022-10-10T01:55:42.353Z,3.23
2022-10-10T01:58:29.169Z,3.50
2022-10-10T02:01:09.060Z,3.27
2022-10-10T02:03:41.427Z,3.77
2022-10-10T02:06:18.423Z,3.17
2022-10-10T02:08:53.186Z,3.67
2022-10-10T02:11:21.852Z,3.23
2022-10-10T02:13:53.651Z,3.43
2022-10-10T02:16:28.489Z,3.63
2022-10-10T02:18:59.723Z,3.30
2022-10-10T02:21:28.785Z,3.73
2022-10-10T02:24:02.292Z,2.73
2022-10-10T02:26:33.116Z,3.50
2022-10-10T02:29:08.451Z,3.60
2022-10-10T02:31:44.885Z,3.40
2022-10-10T02:34:18.693Z,3.13
2022-10-10T02:36:51.912Z,3.17
2022-10-10T02:39:27.069Z,3.30
2022-10-10T02:41:55.122Z,3.80
2022-10-10T02:44:25.265Z,3.50
2022-10-10T02:46:54.735Z,3.50
2022-10-10T02:49:29.266Z,3.67
2022-10-10T02:51:57.579Z,3.23
2022-10-10T02:54:27.469Z,3.60
2022-10-10T02:56:55.772Z,3.03
2022-10-10T02:59:23.817Z,3.90
2022-10-10T03:01:52.270Z,3.27
2022-10-10T03:04:21.651Z,4.20
2022-10-10T03:06:49.706Z,3.37
2022-10-10T03:09:17.854Z,3.10
2022-10-10T03:11:45.947Z,3.50
2022-10-10T03:14:13.950Z,3.13
2022-10-10T03:16:41.947Z,3.57
2022-10-10T03:19:10.029Z,3.30
2022-10-10T03:21:39.461Z,3.33
2022-10-10T03:24:08.120Z,3.00
2022-10-10T03:26:36.179Z,3.73
2022-10-10T03:29:05.179Z,3.10
2022-10-10T03:31:33.635Z,3.23
2022-10-10T03:34:03.184Z,2.97
2022-10-10T03:36:31.723Z,3.27
2022-10-10T03:39:01.274Z,2.83
2022-10-10T03:41:29.889Z,3.20
2022-10-10T03:43:58.043Z,3.20
2022-10-10T03:46:26.210Z,3.60
2022-10-10T03:48:55.854Z,3.37
2022-10-10T03:51:23.991Z,3.27
2022-10-10T03:53:52.122Z,3.50
2022-10-10T03:56:21.491Z,3.33
2022-10-10T03:58:49.543Z,2.97
2022-10-10T04:01:17.781Z,3.50
2022-10-10T04:03:51.291Z,3.10
2022-10-10T04:06:20.208Z,3.10
2022-10-10T04:08:48.678Z,3.47
2022-10-10T04:11:16.697Z,3.67
2022-10-10T04:13:46.099Z,3.40
2022-10-10T04:16:14.180Z,3.07
2022-10-10T04:18:42.350Z,2.90
2022-10-10T04:21:12.310Z,3.13
2022-10-10T04:23:41.474Z,3.00
2022-10-10T04:26:10.022Z,3.07
2022-10-10T04:28:38.182Z,2.97
2022-10-10T04:31:08.115Z,3.00
2022-10-10T04:33:37.501Z,3.03
2022-10-10T04:36:06.157Z,3.30
2022-10-10T04:38:34.239Z,3.17
2022-10-10T04:41:02.721Z,3.17
2022-10-10T04:43:30.911Z,3.27
2022-10-10T04:45:59.503Z,3.30
2022-10-10T04:48:29.217Z,3.30
2022-10-10T04:50:59.935Z,3.30
2022-10-10T04:53:28.488Z,3.10
2022-10-10T04:55:56.532Z,2.70
2022-10-10T04:58:24.578Z,3.00
2022-10-10T05:00:56.661Z,2.90
2022-10-10T05:03:25.859Z,3.30
2022-10-10T05:05:55.257Z,2.80
2022-10-10T05:08:23.280Z,3.47
2022-10-10T05:10:54.349Z,2.93
2022-10-10T05:13:22.541Z,3.20
2022-10-10T05:15:53.114Z,3.20
2022-10-10T05:18:21.948Z,2.80
2022-10-10T05:20:49.990Z,3.87
2022-10-10T05:23:19.357Z,3.13
2022-10-10T05:25:50.605Z,3.10
2022-10-10T05:28:19.126Z,3.23
2022-10-10T05:30:47.246Z,3.47
2022-10-10T05:33:15.269Z,3.10
2022-10-10T05:35:43.381Z,3.50
2022-10-10T05:38:11.485Z,3.33
2022-10-10T05:40:42.545Z,3.53
2022-10-10T05:43:10.985Z,3.07
2022-10-10T05:45:39.197Z,3.10
2022-10-10T05:48:07.205Z,2.97
2022-10-10T05:50:40.479Z,3.23
2022-10-10T05:53:08.560Z,3.10
2022-10-10T05:55:36.693Z,3.03
2022-10-10T05:58:06.585Z,3.13
2022-10-10T06:00:36.472Z,2.80
2022-10-10T06:03:05.148Z,3.20
2022-10-10T06:05:33.375Z,3.17
2022-10-10T06:08:09.388Z,3.37
2022-10-10T06:10:42.402Z,3.57
2022-10-10T06:13:20.334Z,3.23
2022-10-10T06:15:52.983Z,3.23
2022-10-10T06:18:21.062Z,3.63
2022-10-10T06:20:49.095Z,3.07
2022-10-10T06:23:18.131Z,3.00
2022-10-10T06:25:46.214Z,3.10
2022-10-10T06:28:15.549Z,3.30
2022-10-10T06:30:45.029Z,3.10
2022-10-10T06:33:15.042Z,3.73
2022-10-10T06:35:44.369Z,3.03
2022-10-10T06:38:13.877Z,5.20
2022-10-10T06:40:42.595Z,4.30
2022-10-10T06:43:12.524Z,4.23
2022-10-10T06:45:45.021Z,3.30
2022-10-10T06:48:15.471Z,3.60
2022-10-10T06:50:44.027Z,3.20
2022-10-10T06:53:12.078Z,3.17
2022-10-10T06:55:46.422Z,2.87
2022-10-10T06:58:14.961Z,3.23
2022-10-10T07:00:51.193Z,3.50
2022-10-10T07:03:19.918Z,3.40
2022-10-10T07:05:52.046Z,3.47
2022-10-10T07:08:20.284Z,3.30
2022-10-10T07:10:48.662Z,3.13
2022-10-10T07:13:17.341Z,3.90
2022-10-10T07:15:46.735Z,3.73
2022-10-10T07:18:15.167Z,3.47
2022-10-10T07:20:43.268Z,3.47
2022-10-10T07:23:11.480Z,3.30
2022-10-10T07:25:42.780Z,3.07
2022-10-10T07:28:11.781Z,3.30
2022-10-10T07:30:43.334Z,3.20
2022-10-10T07:33:14.007Z,3.00
2022-10-10T07:35:42.696Z,2.87
2022-10-10T07:38:12.806Z,3.10
2022-10-10T07:40:41.537Z,2.80
2022-10-10T07:43:09.588Z,3.53
2022-10-10T07:45:37.651Z,3.10
2022-10-10T07:48:06.452Z,2.97
2022-10-10T07:50:35.959Z,3.60
2022-10-10T07:53:04.026Z,3.27
2022-10-10T07:55:32.073Z,3.27
2022-10-10T07:58:02.932Z,3.50
2022-10-10T08:00:31.306Z,2.87
2022-10-10T08:02:59.279Z,3.60
2022-10-10T08:05:27.434Z,3.10
2022-10-10T08:07:56.845Z,3.10
2022-10-10T08:10:24.946Z,2.90
2022-10-10T08:12:52.974Z,3.10
2022-10-10T08:15:21.283Z,3.23
2022-10-10T08:17:49.586Z,3.00
2022-10-10T08:20:18.070Z,3.10
2022-10-10T08:22:46.134Z,3.33
2022-10-10T08:25:15.944Z,3.30
2022-10-10T08:27:44.121Z,2.77
2022-10-10T08:30:13.429Z,3.60
2022-10-10T08:32:41.429Z,3.00
2022-10-10T08:35:09.954Z,3.17
2022-10-10T08:37:38.002Z,3.27
2022-10-10T08:40:08.021Z,3.30
2022-10-10T08:42:48.918Z,3.27
2022-10-10T08:45:24.700Z,2.80
2022-10-10T08:47:58.002Z,2.57
2022-10-10T08:50:31.754Z,2.90
2022-10-10T08:53:06.565Z,3.20
2022-10-10T08:55:37.955Z,2.80
2022-10-10T08:58:17.502Z,2.37
2022-10-10T09:00:49.478Z,2.63
2022-10-10T09:03:28.184Z,2.63
2022-10-10T09:06:11.591Z,2.50
2022-10-10T09:08:51.846Z,2.20
2022-10-10T09:11:41.114Z,2.73
2022-10-10T09:14:24.551Z,2.90
2022-10-10T09:17:00.155Z,2.40
2022-10-10T09:19:42.003Z,2.43
2022-10-10T09:22:17.046Z,2.63
2022-10-10T09:24:51.237Z,2.27
2022-10-10T09:27:25.814Z,2.70
2022-10-10T09:30:03.075Z,2.30
2022-10-10T09:32:38.651Z,2.13
2022-10-10T09:35:17.550Z,2.30
2022-10-10T09:37:49.833Z,1.93
2022-10-10T09:40:26.486Z,1.83
2022-10-10T09:42:56.554Z,2.10
2022-10-10T09:45:32.901Z,1.70
2022-10-10T09:48:00.934Z,1.90
2022-10-10T09:50:29.138Z,2.03
2022-10-10T09:52:59.201Z,2.17
2022-10-10T09:55:31.798Z,2.00
2022-10-10T09:58:10.909Z,1.73
2022-10-10T10:00:40.427Z,1.90
2022-10-10T10:03:15.021Z,1.90
2022-10-10T10:05:47.565Z,2.23
2022-10-10T10:08:26.917Z,2.10
2022-10-10T10:10:58.464Z,1.80
2022-10-10T10:13:31.423Z,1.90
2022-10-10T10:16:19.397Z,2.20
2022-10-10T10:18:48.860Z,1.97
2022-10-10T10:21:22.266Z,2.20
2022-10-10T10:23:57.691Z,2.00
2022-10-10T10:26:31.871Z,1.73
2022-10-10T10:29:00.092Z,2.10
2022-10-10T10:31:53.489Z,1.83
2022-10-10T10:34:43.207Z,2.20
2022-10-10T10:37:21.804Z,2.07
2022-10-10T10:40:20.157Z,2.00
2022-10-10T10:43:33.939Z,1.90
2022-10-10T10:46:13.346Z,1.97
2022-10-10T10:48:46.819Z,2.10
2022-10-10T10:51:43.928Z,1.93
2022-10-10T10:54:30.398Z,2.03
2022-10-10T10:57:11.160Z,1.83
2022-10-10T11:00:25.706Z,2.03
2022-10-10T11:03:35.102Z,2.03
2022-10-10T11:06:11.910Z,2.10
2022-10-10T11:08:58.579Z,2.17
2022-10-10T11:11:45.491Z,1.70
2022-10-10T11:14:36.693Z,1.67
2022-10-10T11:17:14.339Z,2.10
2022-10-10T11:19:56.459Z,2.20
2022-10-10T11:22:31.517Z,2.23
2022-10-10T11:25:06.435Z,2.07
2022-10-10T11:27:42.649Z,2.10
2022-10-10T11:30:18.069Z,2.23
2022-10-10T11:32:55.303Z,2.00
2022-10-10T11:35:35.770Z,2.17
2022-10-10T11:38:16.717Z,2.67
2022-10-10T11:40:53.971Z,2.50
2022-10-10T11:43:37.557Z,2.03
2022-10-10T11:46:17.415Z,2.20
2022-10-10T11:48:54.226Z,2.13
2022-10-10T11:51:38.167Z,2.00
2022-10-10T11:54:18.554Z,1.80
2022-10-10T11:56:47.651Z,1.97
2022-10-10T11:59:24.998Z,2.10
2022-10-10T12:04:36.892Z,2.43
2022-10-10T12:07:12.642Z,2.10
2022-10-10T12:09:46.150Z,2.13
2022-10-10T12:12:19.444Z,2.23
2022-10-10T12:14:54.154Z,2.83
2022-10-10T12:17:29.665Z,2.10
2022-10-10T12:20:08.779Z,2.43
2022-10-10T12:22:36.933Z,2.10
2022-10-10T12:25:25.767Z,2.30
2022-10-10T12:28:23.393Z,2.10
2022-10-10T12:31:34.070Z,1.90
2022-10-10T12:34:16.030Z,1.60
2022-10-10T12:37:20.277Z,2.10
2022-10-10T12:40:21.317Z,2.00
2022-10-10T12:43:22.621Z,2.43
2022-10-10T12:46:21.618Z,2.30
2022-10-10T12:49:07.698Z,2.07
2022-10-10T12:51:37.574Z,2.03
2022-10-10T12:54:08.374Z,2.50
2022-10-10T12:56:42.093Z,2.27
2022-10-10T12:59:25.164Z,2.60
2022-10-10T13:01:57.599Z,2.50
2022-10-10T13:04:28.371Z,1.57
2022-10-10T13:06:59.871Z,1.97
2022-10-10T13:09:35.840Z,1.93
2022-10-10T13:12:07.978Z,2.23
2022-10-10T13:14:41.554Z,2.57
2022-10-10T13:17:27.490Z,2.00
2022-10-10T13:19:57.764Z,1.80
2022-10-10T13:22:27.113Z,2.10
2022-10-10T13:24:56.945Z,2.30
2022-10-10T13:27:31.082Z,1.87
2022-10-10T13:29:59.767Z,2.10
2022-10-10T13:32:30.397Z,2.00
2022-10-10T13:35:02.107Z,2.30
2022-10-10T13:37:31.420Z,2.47
2022-10-10T13:39:59.893Z,3.13
2022-10-10T13:42:36.328Z,2.20
2022-10-10T13:45:30.888Z,2.00
2022-10-10T13:48:26.186Z,2.37
2022-10-10T13:51:05.068Z,2.50
2022-10-10T13:53:55.167Z,2.33
2022-10-10T13:56:28.696Z,2.50
2022-10-10T13:59:07.669Z,2.30
2022-10-10T14:01:40.159Z,2.23
2022-10-10T14:04:24.582Z,2.53
2022-10-10T14:07:01.885Z,2.27
2022-10-10T14:09:34.555Z,2.07
2022-10-10T14:12:06.313Z,1.93
2022-10-10T14:14:44.119Z,1.97
2022-10-10T14:17:13.414Z,2.07
2022-10-10T14:19:42.095Z,2.57
2022-10-10T14:22:10.160Z,2.40
2022-10-10T14:24:38.511Z,2.57
2022-10-10T14:27:26.748Z,2.60
2022-10-10T14:29:58.570Z,2.00
2022-10-10T14:32:27.015Z,2.40
2022-10-10T14:34:55.153Z,2.57
2022-10-10T14:37:27.912Z,2.37
2022-10-10T14:39:56.882Z,2.53
2022-10-10T14:42:26.201Z,2.50
2022-10-10T14:44:55.632Z,2.10
2022-10-10T14:47:26.040Z,2.07
2022-10-10T14:49:56.545Z,2.50
2022-10-10T14:52:24.734Z,2.83
2022-10-10T14:54:52.861Z,2.40
2022-10-10T14:57:22.311Z,2.20
2022-10-10T14:59:50.486Z,2.60
2022-10-10T15:02:24.045Z,2.30
2022-10-10T15:04:52.371Z,2.37
2022-10-10T15:07:21.341Z,2.53
2022-10-10T15:10:27.576Z,2.17
2022-10-10T15:12:42.387Z,2.20
2022-10-10T15:15:12.726Z,1.90
2022-10-10T15:17:42.621Z,2.43
2022-10-10T15:20:13.430Z,2.47
2022-10-10T15:22:42.294Z,2.50
2022-10-10T15:25:11.213Z,2.60
2022-10-10T15:27:39.760Z,2.17
2022-10-10T15:30:09.810Z,2.23
2022-10-10T15:32:42.970Z,2.03
2022-10-10T15:35:16.486Z,2.67
2022-10-10T15:37:45.688Z,2.93
2022-10-10T15:40:16.403Z,2.07
2022-10-10T15:42:44.824Z,2.20
2022-10-10T15:45:12.893Z,2.90
2022-10-10T15:47:46.615Z,2.47
2022-10-10T15:50:15.084Z,2.03
2022-10-10T15:52:43.178Z,2.30
2022-10-10T15:55:11.581Z,2.17
2022-10-10T15:57:39.655Z,2.40
2022-10-10T16:00:10.636Z,2.13
2022-10-10T16:02:42.935Z,2.13
2022-10-10T16:05:15.863Z,2.63
2022-10-10T16:07:48.084Z,2.80
2022-10-10T16:10:21.356Z,2.47
2022-10-10T16:12:50.472Z,1.90
2022-10-10T16:15:18.715Z,2.30
2022-10-10T16:17:48.208Z,2.10
2022-10-10T16:20:16.451Z,2.30
2022-10-10T16:22:44.499Z,2.83
2022-10-10T16:25:28.088Z,2.00
2022-10-10T16:27:56.258Z,2.17
2022-10-10T16:30:24.477Z,2.30
2022-10-10T16:32:53.955Z,2.40
2022-10-10T16:35:22.187Z,2.60
2022-10-10T16:37:50.217Z,2.07
2022-10-10T16:40:18.597Z,2.13
2022-10-10T16:42:46.714Z,2.30
2022-10-10T16:45:14.760Z,2.60
2022-10-10T16:47:42.802Z,2.13
2022-10-10T16:50:12.917Z,2.00
2022-10-10T16:52:41.571Z,2.50
2022-10-10T16:55:11.245Z,2.47
2022-10-10T16:57:40.051Z,2.37
2022-10-10T17:00:10.414Z,2.30
2022-10-10T17:02:42.021Z,2.40
2022-10-10T17:05:11.836Z,2.80
2022-10-10T17:07:39.868Z,2.50
2022-10-10T17:10:09.215Z,2.47
2022-10-10T17:12:37.302Z,2.37
2022-10-10T17:15:06.729Z,2.40
2022-10-10T17:17:35.788Z,2.67
2022-10-10T17:20:06.556Z,2.47
2022-10-10T17:22:36.922Z,4.20
2022-10-10T17:25:06.187Z,3.73
2022-10-10T17:27:35.023Z,6.00
2022-10-10T17:30:03.441Z,6.57
2022-10-10T17:32:31.819Z,5.40
2022-10-10T17:34:59.905Z,3.23
2022-10-10T17:37:28.321Z,3.60
2022-10-10T17:39:57.723Z,3.00
2022-10-10T17:42:25.792Z,2.73
2022-10-10T17:44:56.740Z,2.43
2022-10-10T17:47:24.789Z,3.20
2022-10-10T17:49:53.114Z,2.97
2022-10-10T17:52:22.140Z,2.90
2022-10-10T17:54:50.365Z,3.40
2022-10-10T17:57:20.210Z,1.90
2022-10-10T17:59:48.256Z,1.50
2022-10-10T18:02:18.817Z,1.50
2022-10-10T18:04:46.989Z,1.60
2022-10-10T18:07:15.816Z,1.47
2022-10-10T18:09:44.080Z,1.40
2022-10-10T18:12:12.361Z,1.90
2022-10-10T18:14:41.727Z,1.83
2022-10-10T18:17:10.210Z,1.80
2022-10-10T18:19:38.300Z,2.30
2022-10-10T18:22:07.062Z,2.10
2022-10-10T18:24:35.221Z,1.70
2022-10-10T18:27:03.487Z,2.23
2022-10-10T18:29:31.587Z,1.80
2022-10-10T18:32:00.971Z,1.40
2022-10-10T18:34:29.147Z,1.43
2022-10-10T18:36:57.201Z,1.40
2022-10-10T18:39:29.423Z,1.30
2022-10-10T18:42:00.452Z,1.60
2022-10-10T18:44:28.768Z,1.60
2022-10-10T18:46:58.252Z,1.60
2022-10-10T18:49:28.231Z,1.20
2022-10-10T18:51:56.541Z,1.37
2022-10-10T18:54:27.129Z,1.60
2022-10-10T18:56:55.146Z,2.03
2022-10-10T18:59:23.479Z,1.67
2022-10-10T19:01:52.425Z,2.00
2022-10-10T19:04:21.559Z,1.50
2022-10-10T19:06:57.116Z,2.20
2022-10-10T19:09:26.759Z,2.73
2022-10-10T19:11:55.398Z,2.50
2022-10-10T19:14:23.516Z,2.20
2022-10-10T19:16:51.833Z,1.80
2022-10-10T19:19:21.136Z,1.77
2022-10-10T19:21:51.332Z,2.37
2022-10-10T19:24:21.271Z,2.10
2022-10-10T19:26:55.794Z,2.10
2022-10-10T19:29:25.322Z,2.20
2022-10-10T19:31:53.611Z,2.63
2022-10-10T19:34:21.694Z,1.97
2022-10-10T19:36:51.117Z,1.87
2022-10-10T19:39:19.485Z,2.03
2022-10-10T19:41:48.032Z,3.07
2022-10-10T19:44:18.457Z,3.43
2022-10-10T19:46:46.492Z,3.40
2022-10-10T19:49:14.765Z,2.60
2022-10-10T19:51:42.769Z,2.50
2022-10-10T19:54:12.379Z,2.03
2022-10-10T19:56:40.381Z,2.47
2022-10-10T19:59:08.908Z,2.73
2022-10-10T20:01:37.424Z,2.73
2022-10-10T20:04:05.807Z,2.97
2022-10-10T20:06:34.005Z,3.23
2022-10-10T20:09:02.225Z,2.70
2022-10-10T20:11:32.582Z,3.07
2022-10-10T20:14:01.787Z,3.00
2022-10-10T20:16:29.961Z,2.77
2022-10-10T20:18:59.931Z,3.10
2022-10-10T20:21:31.531Z,2.90
2022-10-10T20:24:00.711Z,2.67
2022-10-10T20:26:28.971Z,3.30
2022-10-10T20:28:59.571Z,2.87
2022-10-10T20:31:30.986Z,2.77
2022-10-10T20:34:01.668Z,2.60
2022-10-10T20:36:31.962Z,3.07
2022-10-10T20:39:04.719Z,2.83
2022-10-10T20:41:35.967Z,2.57
2022-10-10T20:44:07.686Z,3.10
2022-10-10T20:46:38.343Z,3.60
2022-10-10T20:49:09.463Z,4.57
2022-10-10T20:51:37.561Z,3.00
2022-10-10T20:54:07.145Z,3.17
2022-10-10T20:56:36.663Z,3.63
2022-10-10T20:59:07.237Z,3.20
2022-10-10T21:01:35.835Z,2.87
2022-10-10T21:04:05.032Z,3.03
2022-10-10T21:06:35.397Z,2.40
2022-10-10T21:09:08.635Z,3.10
2022-10-10T21:11:38.962Z,2.80
2022-10-10T21:14:08.810Z,2.27
2022-10-10T21:16:39.741Z,2.73
2022-10-10T21:19:11.011Z,2.77
2022-10-10T21:21:40.408Z,3.00
2022-10-10T21:24:12.021Z,2.80
2022-10-10T21:26:41.758Z,2.40
2022-10-10T21:29:11.170Z,2.90
2022-10-10T21:31:40.739Z,2.80
2022-10-10T21:34:13.223Z,2.30
2022-10-10T21:36:41.686Z,2.57
2022-10-10T21:39:10.042Z,2.83
2022-10-10T21:41:38.421Z,2.90
2022-10-10T21:44:07.063Z,3.10
2022-10-10T21:46:38.030Z,3.30
2022-10-10T21:49:11.190Z,3.03
2022-10-10T21:51:41.646Z,2.90
2022-10-10T21:54:10.517Z,2.83
2022-10-10T21:56:39.669Z,2.70
2022-10-10T21:59:08.361Z,2.60
2022-10-10T22:01:38.117Z,2.57
2022-10-10T22:04:07.417Z,2.90
2022-10-10T22:06:35.889Z,2.47
2022-10-10T22:09:04.754Z,2.60
2022-10-10T22:11:34.231Z,2.70
2022-10-10T22:14:03.103Z,2.60
2022-10-10T22:16:31.913Z,2.60
2022-10-10T22:19:01.595Z,3.17
2022-10-10T22:21:32.465Z,2.97
2022-10-10T22:24:02.524Z,2.90
2022-10-10T22:26:31.683Z,2.53
2022-10-10T22:29:00.203Z,2.43
2022-10-10T22:31:29.297Z,2.73
2022-10-10T22:33:58.142Z,2.57
2022-10-10T22:36:28.006Z,2.63
2022-10-10T22:38:56.045Z,2.80
2022-10-10T22:41:24.152Z,2.97
2022-10-10T22:43:52.437Z,2.97
2022-10-10T22:46:20.469Z,2.63
2022-10-10T22:48:48.628Z,3.07
2022-10-10T22:51:18.798Z,2.90
2022-10-10T22:53:49.336Z,3.07
2022-10-10T22:56:20.819Z,2.83
2022-10-10T22:58:49.977Z,2.50
2022-10-10T23:01:22.318Z,2.77
2022-10-10T23:03:50.966Z,2.60
2022-10-10T23:06:19.048Z,2.83
2022-10-10T23:08:48.442Z,2.87
2022-10-10T23:11:16.869Z,2.77
2022-10-10T23:13:45.025Z,3.27
2022-10-10T23:16:13.157Z,2.43
2022-10-10T23:18:41.269Z,2.60
2022-10-10T23:21:09.375Z,3.50
2022-10-10T23:23:37.548Z,3.53
2022-10-10T23:26:09.039Z,2.83
2022-10-10T23:28:39.284Z,2.67
2022-10-10T23:31:09.855Z,3.13
2022-10-10T23:33:38.267Z,2.97
2022-10-10T23:36:09.390Z,3.23
2022-10-10T23:38:37.637Z,3.43
2022-10-10T23:41:07.579Z,3.23
2022-10-10T23:43:36.387Z,2.80
2022-10-10T23:46:05.107Z,2.50
2022-10-10T23:48:33.476Z,2.30
2022-10-10T23:51:01.557Z,2.80
2022-10-10T23:53:29.995Z,2.60
2022-10-10T23:55:58.055Z,2.93
2022-10-10T23:58:27.682Z,2.73
